Nancy Ochey Fafb, France

8:52 AM CEST on August 20, 2014 (GMT +0200)
Ochey Air Base | Change Station
CLOSE
Current Station
Airport
Location: Nancy Ochey FAFB,
Elevation: 1125 ft
Nearby Weather Stations

Elev 1125 ft 48.58 °N, 5.96 °E | Updated 22 minutes ago

Mostly Cloudy
Mostly Cloudy
52 °F
Feels Like 52 °F
N
0
Wind Variable Wind from North

Today
High -- | Low -- °F
--% Chance of Precip.
Yesterday
High -- | Low -- °F
Precip. -- in
6:36 AM 8:41 PM
Waning Crescent, 24% visible
Pressure 30.04 in
Visibility 6.2 miles
Clouds Few 1900 ft
Scattered Clouds 5600 ft
Mostly Cloudy 7000 ft
Dew Point 48 °F
Humidity 88%
Rainfall 0.00 in
Snow Depth Not available.
UV 1 out of 12
Pollen Not available.
Air Quality Not available.
Flu Activity Not available.
METAR LFSO 200630Z AUTO 00000KT 9999 FEW019 SCT056 BKN070 11/09 Q1017

More Conditions Fewer Conditions

Pressure 30.04 in
Visibility 6.2 miles
Clouds Few 1900 ft
Scattered Clouds 5600 ft
Mostly Cloudy 7000 ft
Dew Point 48 °F
Humidity 88%
Rainfall 0.00 in
Snow Depth Not available.
UV 1 out of 12
Pollen Not available.
Air Quality Not available.
Flu Activity Not available.
METAR LFSO 200630Z AUTO 00000KT 9999 FEW019 SCT056 BKN070 11/09 Q1017

More Conditions Fewer Conditions

10-Day Weather Forecast

Almanac

Astronomy

Aug. 20, 2014 Rise Set
Actual Time 6:36 AM CEST 8:41 PM CEST
Civil Twilight 6:02 AM CEST 9:15 PM CEST
Nautical Twilight 5:19 AM CEST 9:57 PM CEST
Astronomical Twilight 4:32 AM CEST 10:45 PM CEST
Moon 1:54 AM CEST 5:23 PM CEST
Length of Visible Light 15h 13m
Length of Day
14h 05m
Tomorrow will be 3m 17s shorter.
Waning Crescent, 24% of the Moon is Illuminated
Today
Waning Crescent
Aug 25
New
Sep 2
First Quarter
Sep 8
Full
Sep 15
Last Quarter

Yesterday's Extremes

Country Highs Country Lows

Community

WunderPhotos

Upload Photos

1,745,592 photos uploaded!

Nearby

Snow Depth

Not available.

Earthquake Activity

City Distance Mag. Time & Date
No recent earthquake activity has been reported nearby.
Minimum magnitude displayed is 2.5.

Coastal Water Temperatures

Place Temperature
No Stations Reporting

Nearby Weather Stations